sensor_id;sensor_type;location;lat;lon;timestamp;pressure;altitude;pressure_sealevel;temperature;humidity
11440;BME280;5776;51.814;4.510;2023-09-19T00:01:43;100794.72;;;15.92;100.00
11440;BME280;5776;51.814;4.510;2023-09-19T00:04:12;100794.72;;;15.92;100.00
11440;BME280;5776;51.814;4.510;2023-09-19T00:06:39;100793.91;;;15.91;100.00
11440;BME280;5776;51.814;4.510;2023-09-19T00:09:04;100787.63;;;15.91;100.00
11440;BME280;5776;51.814;4.510;2023-09-19T00:11:30;100800.84;;;15.89;100.00
11440;BME280;5776;51.814;4.510;2023-09-19T00:13:57;100802.44;;;15.90;100.00
11440;BME280;5776;51.814;4.510;2023-09-19T00:16:25;100807.91;;;15.90;100.00
11440;BME280;5776;51.814;4.510;2023-09-19T00:18:52;100806.31;;;15.89;100.00
11440;BME280;5776;51.814;4.510;2023-09-19T00:21:18;100813.75;;;15.88;100.00
11440;BME280;5776;51.814;4.510;2023-09-19T00:23:45;100821.16;;;15.88;100.00
11440;BME280;5776;51.814;4.510;2023-09-19T00:26:11;100817.13;;;15.85;100.00
11440;BME280;5776;51.814;4.510;2023-09-19T00:28:37;100817.44;;;15.84;100.00
11440;BME280;5776;51.814;4.510;2023-09-19T00:31:02;100831.13;;;15.84;100.00
11440;BME280;5776;51.814;4.510;2023-09-19T00:33:28;100826.31;;;15.81;100.00
11440;BME280;5776;51.814;4.510;2023-09-19T00:35:58;100828.56;;;15.79;100.00
11440;BME280;5776;51.814;4.510;2023-09-19T00:38:24;100830.81;;;15.76;100.00
11440;BME280;5776;51.814;4.510;2023-09-19T00:40:53;100825.69;;;15.75;100.00
11440;BME280;5776;51.814;4.510;2023-09-19T00:43:20;100824.53;;;15.76;100.00
11440;BME280;5776;51.814;4.510;2023-09-19T00:45:48;100825.19;;;15.73;100.00
11440;BME280;5776;51.814;4.510;2023-09-19T00:48:18;100832.91;;;15.71;100.00
11440;BME280;5776;51.814;4.510;2023-09-19T00:50:46;100833.06;;;15.66;100.00
11440;BME280;5776;51.814;4.510;2023-09-19T00:53:15;100830.63;;;15.64;100.00
11440;BME280;5776;51.814;4.510;2023-09-19T00:55:45;100835.16;;;15.60;100.00
11440;BME280;5776;51.814;4.510;2023-09-19T00:58:11;100831.13;;;15.58;100.00
11440;BME280;5776;51.814;4.510;2023-09-19T01:00:38;100826.75;;;15.56;100.00
11440;BME280;5776;51.814;4.510;2023-09-19T01:03:05;100835.31;;;15.55;100.00
11440;BME280;5776;51.814;4.510;2023-09-19T01:05:35;100844.63;;;15.54;100.00
11440;BME280;5776;51.814;4.510;2023-09-19T01:08:02;100839.81;;;15.51;100.00
11440;BME280;5776;51.814;4.510;2023-09-19T01:10:28;100839.00;;;15.50;100.00
11440;BME280;5776;51.814;4.510;2023-09-19T01:13:05;100840.94;;;15.50;100.00
11440;BME280;5776;51.814;4.510;2023-09-19T01:29:01;100847.03;;;15.38;100.00
11440;BME280;5776;51.814;4.510;2023-09-19T01:31:33;100850.09;;;15.37;100.00
11440;BME280;5776;51.814;4.510;2023-09-19T01:34:02;100843.81;;;15.36;100.00
11440;BME280;5776;51.814;4.510;2023-09-19T01:36:33;100849.59;;;15.34;100.00
11440;BME280;5776;51.814;4.510;2023-09-19T01:39:04;100848.50;;;15.36;100.00
11440;BME280;5776;51.814;4.510;2023-09-19T01:44:06;100847.84;;;15.30;100.00
11440;BME280;5776;51.814;4.510;2023-09-19T01:46:39;100841.53;;;15.29;100.00
11440;BME280;5776;51.814;4.510;2023-09-19T01:49:42;100848.66;;;15.30;100.00
11440;BME280;5776;51.814;4.510;2023-09-19T01:52:12;100847.00;;;15.29;100.00
11440;BME280;5776;51.814;4.510;2023-09-19T01:54:51;100849.75;;;15.29;100.00
11440;BME280;5776;51.814;4.510;2023-09-19T01:57:26;100850.09;;;15.28;100.00
11440;BME280;5776;51.814;4.510;2023-09-19T02:00:07;100852.81;;;15.28;100.00
11440;BME280;5776;51.814;4.510;2023-09-19T02:02:43;100837.50;;;15.27;100.00
11440;BME280;5776;51.814;4.510;2023-09-19T02:05:10;100841.19;;;15.22;100.00
11440;BME280;5776;51.814;4.510;2023-09-19T02:07:38;100846.69;;;15.22;100.00
11440;BME280;5776;51.814;4.510;2023-09-19T02:10:05;100850.84;;;15.20;100.00
11440;BME280;5776;51.814;4.510;2023-09-19T02:12:32;100858.09;;;15.16;100.00
11440;BME280;5776;51.814;4.510;2023-09-19T02:15:01;100857.31;;;15.15;100.00
11440;BME280;5776;51.814;4.510;2023-09-19T02:17:28;100852.94;;;15.14;100.00
11440;BME280;5776;51.814;4.510;2023-09-19T02:19:54;100857.78;;;15.17;100.00
11440;BME280;5776;51.814;4.510;2023-09-19T02:22:21;100849.09;;;15.15;100.00
11440;BME280;5776;51.814;4.510;2023-09-19T02:24:49;100852.94;;;15.14;100.00
11440;BME280;5776;51.814;4.510;2023-09-19T02:27:16;100851.00;;;15.15;100.00
11440;BME280;5776;51.814;4.510;2023-09-19T02:29:45;100851.34;;;15.13;100.00
11440;BME280;5776;51.814;4.510;2023-09-19T02:32:12;100856.00;;;15.12;100.00
11440;BME280;5776;51.814;4.510;2023-09-19T02:34:38;100853.59;;;15.11;100.00
11440;BME280;5776;51.814;4.510;2023-09-19T02:37:04;100855.81;;;15.09;100.00
11440;BME280;5776;51.814;4.510;2023-09-19T02:39:34;100855.81;;;15.09;100.00
11440;BME280;5776;51.814;4.510;2023-09-19T02:42:00;100861.28;;;15.09;100.00
11440;BME280;5776;51.814;4.510;2023-09-19T02:44:27;100864.53;;;15.11;100.00
11440;BME280;5776;51.814;4.510;2023-09-19T02:46:53;100861.28;;;15.09;100.00
11440;BME280;5776;51.814;4.510;2023-09-19T02:49:19;100858.41;;;15.05;100.00
11440;BME280;5776;51.814;4.510;2023-09-19T02:51:45;100856.63;;;15.09;100.00
11440;BME280;5776;51.814;4.510;2023-09-19T02:54:11;100859.06;;;15.11;100.00
11440;BME280;5776;51.814;4.510;2023-09-19T02:56:37;100854.22;;;15.08;100.00
11440;BME280;5776;51.814;4.510;2023-09-19T02:59:03;100861.47;;;15.12;100.00
11440;BME280;5776;51.814;4.510;2023-09-19T03:01:29;100860.34;;;15.05;100.00
11440;BME280;5776;51.814;4.510;2023-09-19T03:03:55;100850.50;;;15.04;100.00
11440;BME280;5776;51.814;4.510;2023-09-19T03:06:21;100863.88;;;15.05;100.00
11440;BME280;5776;51.814;4.510;2023-09-19T03:08:48;100855.66;;;15.05;100.00
11440;BME280;5776;51.814;4.510;2023-09-19T03:11:15;100857.91;;;15.03;100.00
11440;BME280;5776;51.814;4.510;2023-09-19T03:13:44;100856.63;;;15.01;100.00
11440;BME280;5776;51.814;4.510;2023-09-19T03:16:11;100854.03;;;14.96;100.00
11440;BME280;5776;51.814;4.510;2023-09-19T03:18:37;100850.16;;;14.97;100.00
11440;BME280;5776;51.814;4.510;2023-09-19T03:21:03;100850.16;;;14.97;100.00
11440;BME280;5776;51.814;4.510;2023-09-19T03:23:29;100854.66;;;14.93;100.00
11440;BME280;5776;51.814;4.510;2023-09-19T03:25:56;100852.72;;;14.93;100.00
11440;BME280;5776;51.814;4.510;2023-09-19T03:28:24;100849.66;;;14.95;100.00
11440;BME280;5776;51.814;4.510;2023-09-19T03:31:05;100854.34;;;14.94;100.00
11440;BME280;5776;51.814;4.510;2023-09-19T03:33:32;100867.22;;;14.94;100.00
11440;BME280;5776;51.814;4.510;2023-09-19T03:35:59;100860.59;;;14.95;100.00
11440;BME280;5776;51.814;4.510;2023-09-19T03:38:27;100858.50;;;14.91;100.00
11440;BME280;5776;51.814;4.510;2023-09-19T03:40:53;100846.47;;;14.93;100.00
11440;BME280;5776;51.814;4.510;2023-09-19T03:43:19;100845.16;;;14.90;100.00
11440;BME280;5776;51.814;4.510;2023-09-19T03:45:45;100849.81;;;14.89;100.00
11440;BME280;5776;51.814;4.510;2023-09-19T03:48:12;100846.59;;;14.87;100.00
11440;BME280;5776;51.814;4.510;2023-09-19T03:50:39;100853.19;;;14.86;100.00
11440;BME280;5776;51.814;4.510;2023-09-19T03:53:05;100864.63;;;14.88;100.00
11440;BME280;5776;51.814;4.510;2023-09-19T03:55:33;100866.34;;;14.84;100.00
11440;BME280;5776;51.814;4.510;2023-09-19T03:58:03;100863.97;;;14.83;100.00
11440;BME280;5776;51.814;4.510;2023-09-19T04:00:29;100868.28;;;14.84;100.00
11440;BME280;5776;51.814;4.510;2023-09-19T04:02:55;100877.94;;;14.81;100.00
11440;BME280;5776;51.814;4.510;2023-09-19T04:05:23;100875.53;;;14.80;100.00
11440;BME280;5776;51.814;4.510;2023-09-19T04:07:49;100870.88;;;14.80;100.00
11440;BME280;5776;51.814;4.510;2023-09-19T04:10:16;100874.69;;;14.79;100.00
11440;BME280;5776;51.814;4.510;2023-09-19T04:12:53;100887.28;;;14.80;100.00
11440;BME280;5776;51.814;4.510;2023-09-19T04:15:20;100888.56;;;14.83;100.00
11440;BME280;5776;51.814;4.510;2023-09-19T04:17:51;100895.97;;;14.82;100.00
11440;BME280;5776;51.814;4.510;2023-09-19T04:20:18;100893.53;;;14.81;100.00
11440;BME280;5776;51.814;4.510;2023-09-19T04:22:53;100896.09;;;14.77;100.00
11440;BME280;5776;51.814;4.510;2023-09-19T04:25:18;100907.03;;;14.77;100.00
11440;BME280;5776;51.814;4.510;2023-09-19T04:27:44;100908.16;;;14.76;100.00
11440;BME280;5776;51.814;4.510;2023-09-19T04:30:11;100907.66;;;14.74;100.00
11440;BME280;5776;51.814;4.510;2023-09-19T04:32:38;100897.84;;;14.73;100.00
11440;BME280;5776;51.814;4.510;2023-09-19T04:35:08;100903.31;;;14.73;100.00
11440;BME280;5776;51.814;4.510;2023-09-19T04:37:39;100905.06;;;14.69;100.00
11440;BME280;5776;51.814;4.510;2023-09-19T04:40:09;100905.53;;;14.71;100.00
11440;BME280;5776;51.814;4.510;2023-09-19T04:42:39;100908.59;;;14.69;100.00
11440;BME280;5776;51.814;4.510;2023-09-19T04:45:05;100896.84;;;14.69;100.00
11440;BME280;5776;51.814;4.510;2023-09-19T04:47:31;100904.75;;;14.71;100.00
11440;BME280;5776;51.814;4.510;2023-09-19T04:49:57;100912.63;;;14.72;100.00
11440;BME280;5776;51.814;4.510;2023-09-19T04:52:25;100912.16;;;14.70;100.00
11440;BME280;5776;51.814;4.510;2023-09-19T04:54:50;100905.84;;;14.69;100.00
11440;BME280;5776;51.814;4.510;2023-09-19T04:57:16;100917.13;;;14.68;100.00
11440;BME280;5776;51.814;4.510;2023-09-19T04:59:42;100914.06;;;14.69;100.00
11440;BME280;5776;51.814;4.510;2023-09-19T05:02:08;100911.66;;;14.68;100.00
11440;BME280;5776;51.814;4.510;2023-09-19T05:04:35;100909.22;;;14.66;100.00
11440;BME280;5776;51.814;4.510;2023-09-19T05:07:01;100924.97;;;14.69;100.00
11440;BME280;5776;51.814;4.510;2023-09-19T05:09:29;100916.31;;;14.67;100.00
11440;BME280;5776;51.814;4.510;2023-09-19T05:11:55;100917.41;;;14.66;100.00
11440;BME280;5776;51.814;4.510;2023-09-19T05:14:22;100924.81;;;14.66;100.00
11440;BME280;5776;51.814;4.510;2023-09-19T05:16:49;100928.06;;;14.68;100.00
11440;BME280;5776;51.814;4.510;2023-09-19T05:19:15;100910.03;;;14.67;100.00
11440;BME280;5776;51.814;4.510;2023-09-19T05:21:41;100906.00;;;14.64;100.00
11440;BME280;5776;51.814;4.510;2023-09-19T05:24:07;100914.69;;;14.66;100.00
11440;BME280;5776;51.814;4.510;2023-09-19T05:26:32;100913.25;;;14.69;100.00
11440;BME280;5776;51.814;4.510;2023-09-19T05:28:58;100915.47;;;14.67;100.00
11440;BME280;5776;51.814;4.510;2023-09-19T05:31:24;100912.75;;;14.67;100.00
11440;BME280;5776;51.814;4.510;2023-09-19T05:33:51;100917.13;;;14.68;100.00
11440;BME280;5776;51.814;4.510;2023-09-19T05:36:17;100918.22;;;14.67;100.00
11440;BME280;5776;51.814;4.510;2023-09-19T05:38:44;100905.38;;;14.67;100.00
11440;BME280;5776;51.814;4.510;2023-09-19T05:41:10;100898.28;;;14.66;100.00
11440;BME280;5776;51.814;4.510;2023-09-19T05:43:40;100903.13;;;14.69;100.00
11440;BME280;5776;51.814;4.510;2023-09-19T05:46:07;100909.22;;;14.66;100.00
11440;BME280;5776;51.814;4.510;2023-09-19T05:48:33;100917.28;;;14.72;100.00
11440;BME280;5776;51.814;4.510;2023-09-19T05:50:59;100920.34;;;14.70;100.00
11440;BME280;5776;51.814;4.510;2023-09-19T05:53:27;100914.06;;;14.69;100.00
11440;BME280;5776;51.814;4.510;2023-09-19T05:55:54;100912.44;;;14.68;100.00
11440;BME280;5776;51.814;4.510;2023-09-19T05:58:21;100918.72;;;14.69;100.00
11440;BME280;5776;51.814;4.510;2023-09-19T06:00:47;100918.22;;;14.67;100.00
11440;BME280;5776;51.814;4.510;2023-09-19T06:03:14;100932.72;;;14.67;100.00
11440;BME280;5776;51.814;4.510;2023-09-19T06:05:40;100940.59;;;14.69;100.00
11440;BME280;5776;51.814;4.510;2023-09-19T06:08:07;100936.75;;;14.70;100.00
11440;BME280;5776;51.814;4.510;2023-09-19T06:10:33;100942.69;;;14.72;100.00
11440;BME280;5776;51.814;4.510;2023-09-19T06:13:02;100936.75;;;14.70;100.00
11440;BME280;5776;51.814;4.510;2023-09-19T06:15:31;100938.34;;;14.71;100.00
11440;BME280;5776;51.814;4.510;2023-09-19T06:17:59;100942.22;;;14.70;100.00
11440;BME280;5776;51.814;4.510;2023-09-19T06:20:26;100948.16;;;14.72;100.00
11440;BME280;5776;51.814;4.510;2023-09-19T06:22:53;100943.81;;;14.71;100.00
11440;BME280;5776;51.814;4.510;2023-09-19T06:25:19;100947.84;;;14.74;100.00
11440;BME280;5776;51.814;4.510;2023-09-19T06:27:52;100945.41;;;14.72;100.00
11440;BME280;5776;51.814;4.510;2023-09-19T06:30:20;100943.81;;;14.71;100.00
11440;BME280;5776;51.814;4.510;2023-09-19T06:32:46;100947.06;;;14.73;100.00
11440;BME280;5776;51.814;4.510;2023-09-19T06:35:13;100938.34;;;14.71;100.00
11440;BME280;5776;51.814;4.510;2023-09-19T06:37:41;100951.53;;;14.69;100.00
11440;BME280;5776;51.814;4.510;2023-09-19T06:40:12;100936.13;;;14.73;100.00
11440;BME280;5776;51.814;4.510;2023-09-19T06:42:43;100946.56;;;14.71;100.00
11440;BME280;5776;51.814;4.510;2023-09-19T06:45:10;100949.28;;;14.71;100.00
11440;BME280;5776;51.814;4.510;2023-09-19T06:47:44;100954.75;;;14.71;100.00
11440;BME280;5776;51.814;4.510;2023-09-19T06:50:11;100950.88;;;14.72;100.00
11440;BME280;5776;51.814;4.510;2023-09-19T06:52:41;100948.97;;;14.73;100.00
11440;BME280;5776;51.814;4.510;2023-09-19T06:55:07;100952.53;;;14.73;100.00
11440;BME280;5776;51.814;4.510;2023-09-19T06:57:37;100946.75;;;14.75;100.00
11440;BME280;5776;51.814;4.510;2023-09-19T07:00:03;100943.69;;;14.76;100.00
11440;BME280;5776;51.814;4.510;2023-09-19T07:02:34;100952.69;;;14.77;100.00
11440;BME280;5776;51.814;4.510;2023-09-19T07:05:00;100948.06;;;14.77;100.00
11440;BME280;5776;51.814;4.510;2023-09-19T07:07:26;100951.59;;;14.78;100.00
11440;BME280;5776;51.814;4.510;2023-09-19T07:09:52;100954.47;;;14.81;100.00
11440;BME280;5776;51.814;4.510;2023-09-19T07:12:19;100953.84;;;14.84;100.00
11440;BME280;5776;51.814;4.510;2023-09-19T07:14:45;100958.53;;;14.84;100.00
11440;BME280;5776;51.814;4.510;2023-09-19T07:17:11;100947.78;;;14.87;100.00
11440;BME280;5776;51.814;4.510;2023-09-19T07:19:39;100950.19;;;14.89;100.00
11440;BME280;5776;51.814;4.510;2023-09-19T07:22:05;100952.63;;;14.90;100.00
11440;BME280;5776;51.814;4.510;2023-09-19T07:24:30;100955.34;;;14.90;100.00
11440;BME280;5776;51.814;4.510;2023-09-19T07:26:57;100956.66;;;14.93;100.00
11440;BME280;5776;51.814;4.510;2023-09-19T07:29:23;100959.03;;;14.95;100.00
11440;BME280;5776;51.814;4.510;2023-09-19T07:31:49;100951.34;;;14.97;100.00
11440;BME280;5776;51.814;4.510;2023-09-19T07:34:16;100958.75;;;14.96;100.00
11440;BME280;5776;51.814;4.510;2023-09-19T07:36:42;100963.59;;;14.99;100.00
11440;BME280;5776;51.814;4.510;2023-09-19T07:39:08;100953.34;;;15.05;100.00
11440;BME280;5776;51.814;4.510;2023-09-19T07:41:33;100969.75;;;15.05;100.00
11440;BME280;5776;51.814;4.510;2023-09-19T07:43:59;100961.53;;;15.05;100.00
11440;BME280;5776;51.814;4.510;2023-09-19T07:46:26;100967.16;;;15.08;100.00
11440;BME280;5776;51.814;4.510;2023-09-19T07:48:52;100970.41;;;15.10;100.00
11440;BME280;5776;51.814;4.510;2023-09-19T07:51:18;100958.66;;;15.10;100.00
11440;BME280;5776;51.814;4.510;2023-09-19T07:53:44;100957.53;;;15.11;100.00
11440;BME280;5776;51.814;4.510;2023-09-19T07:56:10;100960.75;;;15.13;100.00
11440;BME280;5776;51.814;4.510;2023-09-19T07:58:39;100958.19;;;15.17;100.00
11440;BME280;5776;51.814;4.510;2023-09-19T08:01:08;100962.56;;;15.18;100.00
11440;BME280;5776;51.814;4.510;2023-09-19T08:03:34;100957.09;;;15.18;100.00
11440;BME280;5776;51.814;4.510;2023-09-19T08:06:00;100957.88;;;15.18;100.00
11440;BME280;5776;51.814;4.510;2023-09-19T08:08:27;100961.91;;;15.21;100.00
11440;BME280;5776;51.814;4.510;2023-09-19T08:10:56;100967.06;;;15.22;100.00
11440;BME280;5776;51.814;4.510;2023-09-19T08:13:24;100963.22;;;15.23;100.00
11440;BME280;5776;51.814;4.510;2023-09-19T08:15:50;100960.16;;;15.25;100.00
11440;BME280;5776;51.814;4.510;2023-09-19T08:18:20;100956.00;;;15.27;100.00
11440;BME280;5776;51.814;4.510;2023-09-19T08:20:52;100961.63;;;15.31;100.00
11440;BME280;5776;51.814;4.510;2023-09-19T08:23:18;100960.19;;;15.33;100.00
11440;BME280;5776;51.814;4.510;2023-09-19T08:25:46;100952.13;;;15.37;100.00
11440;BME280;5776;51.814;4.510;2023-09-19T08:28:13;100957.47;;;15.42;100.00
11440;BME280;5776;51.814;4.510;2023-09-19T08:30:43;100952.47;;;15.44;100.00
11440;BME280;5776;51.814;4.510;2023-09-19T08:33:09;100950.44;;;15.50;100.00
11440;BME280;5776;51.814;4.510;2023-09-19T08:35:36;100949.78;;;15.53;100.00
11440;BME280;5776;51.814;4.510;2023-09-19T08:38:04;100947.69;;;15.59;100.00
11440;BME280;5776;51.814;4.510;2023-09-19T08:40:32;100948.69;;;15.63;100.00
11440;BME280;5776;51.814;4.510;2023-09-19T08:42:59;100931.91;;;15.64;100.00
11440;BME280;5776;51.814;4.510;2023-09-19T08:45:26;100944.16;;;15.67;100.00
11440;BME280;5776;51.814;4.510;2023-09-19T08:50:49;100933.91;;;15.72;100.00
11440;BME280;5776;51.814;4.510;2023-09-19T08:53:21;100936.66;;;15.72;100.00
11440;BME280;5776;51.814;4.510;2023-09-19T08:55:53;100941.00;;;15.73;100.00
11440;BME280;5776;51.814;4.510;2023-09-19T08:58:26;100937.94;;;15.75;100.00
11440;BME280;5776;51.814;4.510;2023-09-19T09:00:57;100941.13;;;15.77;100.00
11440;BME280;5776;51.814;4.510;2023-09-19T09:03:26;100938.59;;;15.81;100.00
11440;BME280;5776;51.814;4.510;2023-09-19T09:05:53;100950.84;;;15.83;100.00
11440;BME280;5776;51.814;4.510;2023-09-19T09:08:19;100938.44;;;15.86;100.00
11440;BME280;5776;51.814;4.510;2023-09-19T09:10:48;100940.53;;;15.89;100.00
11440;BME280;5776;51.814;4.510;2023-09-19T09:13:14;100951.97;;;15.91;100.00
11440;BME280;5776;51.814;4.510;2023-09-19T09:15:41;100943.09;;;15.94;100.00
11440;BME280;5776;51.814;4.510;2023-09-19T09:18:10;100930.38;;;15.98;100.00
11440;BME280;5776;51.814;4.510;2023-09-19T09:20:36;100947.75;;;16.02;100.00
11440;BME280;5776;51.814;4.510;2023-09-19T09:23:03;100947.47;;;16.04;100.00
11440;BME280;5776;51.814;4.510;2023-09-19T09:25:50;100957.44;;;16.08;100.00
11440;BME280;5776;51.814;4.510;2023-09-19T09:28:20;100943.09;;;16.11;100.00
11440;BME280;5776;51.814;4.510;2023-09-19T09:30:46;100950.66;;;16.14;100.00
11440;BME280;5776;51.814;4.510;2023-09-19T09:33:14;100950.03;;;16.17;100.00
11440;BME280;5776;51.814;4.510;2023-09-19T09:36:00;100951.78;;;16.22;100.00
11440;BME280;5776;51.814;4.510;2023-09-19T09:38:45;100942.13;;;16.25;100.00
11440;BME280;5776;51.814;4.510;2023-09-19T09:41:12;100937.94;;;16.27;100.00
11440;BME280;5776;51.814;4.510;2023-09-19T09:43:42;100938.91;;;16.31;100.00
11440;BME280;5776;51.814;4.510;2023-09-19T09:46:16;100947.59;;;16.33;100.00
11440;BME280;5776;51.814;4.510;2023-09-19T09:51:40;100927.59;;;16.41;100.00
11440;BME280;5776;51.814;4.510;2023-09-19T09:54:12;100934.84;;;16.46;100.00
11440;BME280;5776;51.814;4.510;2023-09-19T09:56:53;100945.97;;;16.50;100.00
11440;BME280;5776;51.814;4.510;2023-09-19T09:59:23;100947.25;;;16.52;100.00
11440;BME280;5776;51.814;4.510;2023-09-19T10:02:09;100938.84;;;16.57;100.00
11440;BME280;5776;51.814;4.510;2023-09-19T10:04:39;100935.31;;;16.57;100.00
11440;BME280;5776;51.814;4.510;2023-09-19T10:07:43;100930.00;;;16.60;100.00
11440;BME280;5776;51.814;4.510;2023-09-19T10:10:33;100926.09;;;16.61;100.00
11440;BME280;5776;51.814;4.510;2023-09-19T10:13:12;100928.66;;;16.67;100.00
11440;BME280;5776;51.814;4.510;2023-09-19T10:15:43;100919.31;;;16.68;100.00
11440;BME280;5776;51.814;4.510;2023-09-19T10:18:14;100930.75;;;16.70;100.00
11440;BME280;5776;51.814;4.510;2023-09-19T10:20:45;100912.53;;;16.74;100.00
11440;BME280;5776;51.814;4.510;2023-09-19T10:23:12;100909.47;;;16.75;100.00
11440;BME280;5776;51.814;4.510;2023-09-19T10:25:42;100906.09;;;16.78;100.00
11440;BME280;5776;51.814;4.510;2023-09-19T10:28:11;100897.06;;;16.78;100.00
11440;BME280;5776;51.814;4.510;2023-09-19T10:30:38;100898.66;;;16.79;100.00
11440;BME280;5776;51.814;4.510;2023-09-19T10:33:10;100890.13;;;16.80;100.00
11440;BME280;5776;51.814;4.510;2023-09-19T10:35:43;100895.75;;;16.84;100.00
11440;BME280;5776;51.814;4.510;2023-09-19T10:38:12;100894.59;;;16.85;100.00
11440;BME280;5776;51.814;4.510;2023-09-19T10:40:38;100908.00;;;16.87;100.00
11440;BME280;5776;51.814;4.510;2023-09-19T10:43:13;100913.16;;;16.88;100.00
11440;BME280;5776;51.814;4.510;2023-09-19T10:45:45;100899.25;;;16.93;100.00
11440;BME280;5776;51.814;4.510;2023-09-19T10:48:16;100905.53;;;16.94;100.00
11440;BME280;5776;51.814;4.510;2023-09-19T10:53:45;100885.97;;;17.04;100.00
11440;BME280;5776;51.814;4.510;2023-09-19T10:56:37;100889.38;;;17.01;100.00
11440;BME280;5776;51.814;4.510;2023-09-19T10:59:12;100884.50;;;17.06;100.00
11440;BME280;5776;51.814;4.510;2023-09-19T11:01:43;100882.91;;;17.05;100.00
11440;BME280;5776;51.814;4.510;2023-09-19T11:04:33;100887.06;;;17.12;100.00
11440;BME280;5776;51.814;4.510;2023-09-19T11:07:08;100870.88;;;17.19;100.00
11440;BME280;5776;51.814;4.510;2023-09-19T11:09:56;100874.75;;;17.18;100.00
11440;BME280;5776;51.814;4.510;2023-09-19T11:14:57;100879.41;;;17.26;100.00
11440;BME280;5776;51.814;4.510;2023-09-19T11:17:40;100864.53;;;17.27;100.00
11440;BME280;5776;51.814;4.510;2023-09-19T11:30:50;100848.47;;;17.38;100.00
11440;BME280;5776;51.814;4.510;2023-09-19T11:33:27;100857.53;;;17.38;100.00
11440;BME280;5776;51.814;4.510;2023-09-19T11:36:13;100850.88;;;17.39;100.00
11440;BME280;5776;51.814;4.510;2023-09-19T11:49:18;100852.03;;;17.38;100.00
11440;BME280;5776;51.814;4.510;2023-09-19T11:51:52;100840.69;;;17.40;100.00
11440;BME280;5776;51.814;4.510;2023-09-19T12:08:35;100847.63;;;17.46;100.00
11440;BME280;5776;51.814;4.510;2023-09-19T12:14:47;100862.63;;;17.48;100.00
11440;BME280;5776;51.814;4.510;2023-09-19T12:17:13;100866.16;;;17.49;100.00
11440;BME280;5776;51.814;4.510;2023-09-19T12:19:50;100864.69;;;17.52;100.00
11440;BME280;5776;51.814;4.510;2023-09-19T12:22:17;100876.34;;;17.48;100.00
11440;BME280;5776;51.814;4.510;2023-09-19T12:24:45;100872.81;;;17.48;100.00
11440;BME280;5776;51.814;4.510;2023-09-19T12:27:13;100877.00;;;17.45;100.00
11440;BME280;5776;51.814;4.510;2023-09-19T12:29:47;100864.22;;;17.49;100.00
11440;BME280;5776;51.814;4.510;2023-09-19T12:32:36;100871.06;;;17.43;100.00
11440;BME280;5776;51.814;4.510;2023-09-19T12:35:06;100868.13;;;17.48;100.00
11440;BME280;5776;51.814;4.510;2023-09-19T12:37:45;100868.13;;;17.48;100.00
11440;BME280;5776;51.814;4.510;2023-09-19T12:40:14;100861.81;;;17.48;100.00
11440;BME280;5776;51.814;4.510;2023-09-19T12:42:43;100875.81;;;17.55;100.00
11440;BME280;5776;51.814;4.510;2023-09-19T12:45:11;100868.72;;;17.54;100.00
11440;BME280;5776;51.814;4.510;2023-09-19T12:47:39;100870.66;;;17.54;100.00
11440;BME280;5776;51.814;4.510;2023-09-19T12:50:12;100860.78;;;17.53;100.00
11440;BME280;5776;51.814;4.510;2023-09-19T12:52:45;100838.19;;;17.56;100.00
11440;BME280;5776;51.814;4.510;2023-09-19T12:55:20;100847.34;;;17.60;100.00
11440;BME280;5776;51.814;4.510;2023-09-19T12:58:08;100857.53;;;17.59;100.00
11440;BME280;5776;51.814;4.510;2023-09-19T13:00:37;100841.53;;;17.61;100.00
11440;BME280;5776;51.814;4.510;2023-09-19T13:05:55;100843.06;;;17.71;100.00
11440;BME280;5776;51.814;4.510;2023-09-19T13:08:26;100844.44;;;17.77;100.00
11440;BME280;5776;51.814;4.510;2023-09-19T13:13:44;100841.06;;;17.80;100.00
11440;BME280;5776;51.814;4.510;2023-09-19T13:16:15;100838.25;;;17.89;100.00
11440;BME280;5776;51.814;4.510;2023-09-19T13:18:49;100839.25;;;17.84;100.00
11440;BME280;5776;51.814;4.510;2023-09-19T13:21:37;100830.34;;;17.87;100.00
11440;BME280;5776;51.814;4.510;2023-09-19T13:24:24;100833.88;;;17.88;100.00
11440;BME280;5776;51.814;4.510;2023-09-19T13:26:56;100835.03;;;17.87;100.00
11440;BME280;5776;51.814;4.510;2023-09-19T13:29:23;100834.22;;;17.86;100.00
11440;BME280;5776;51.814;4.510;2023-09-19T13:31:51;100831.59;;;17.90;100.00
11440;BME280;5776;51.814;4.510;2023-09-19T13:34:19;100842.47;;;17.86;100.00
11440;BME280;5776;51.814;4.510;2023-09-19T13:36:46;100830.00;;;17.89;100.00
11440;BME280;5776;51.814;4.510;2023-09-19T13:39:16;100836.97;;;17.86;100.00
11440;BME280;5776;51.814;4.510;2023-09-19T13:41:47;100844.53;;;17.89;100.00
11440;BME280;5776;51.814;4.510;2023-09-19T13:44:15;100838.47;;;17.84;100.00
11440;BME280;5776;51.814;4.510;2023-09-19T13:46:42;100838.47;;;17.84;100.00
11440;BME280;5776;51.814;4.510;2023-09-19T13:49:11;100839.25;;;17.84;100.00
11440;BME280;5776;51.814;4.510;2023-09-19T13:51:38;100839.56;;;17.83;100.00
11440;BME280;5776;51.814;4.510;2023-09-19T13:54:04;100832.50;;;17.82;100.00
11440;BME280;5776;51.814;4.510;2023-09-19T13:56:30;100829.75;;;17.82;100.00
11440;BME280;5776;51.814;4.510;2023-09-19T13:58:57;100844.63;;;17.81;100.00
11440;BME280;5776;51.814;4.510;2023-09-19T14:01:23;100846.81;;;17.87;100.00
11440;BME280;5776;51.814;4.510;2023-09-19T14:03:49;100842.00;;;17.84;100.00
11440;BME280;5776;51.814;4.510;2023-09-19T14:06:17;100842.00;;;17.84;100.00
11440;BME280;5776;51.814;4.510;2023-09-19T14:08:44;100856.41;;;17.81;100.00
11440;BME280;5776;51.814;4.510;2023-09-19T14:11:13;100858.16;;;17.86;100.00
11440;BME280;5776;51.814;4.510;2023-09-19T14:13:41;100840.41;;;17.83;100.00